sensor_id;sensor_type;location;lat;lon;timestamp;pressure;altitude;pressure_sealevel;temperature
12854;BMP180;6495;51.808;7.478;2023-02-19T00:01:54;101065.00;;;10.70
12854;BMP180;6495;51.808;7.478;2023-02-19T00:04:22;101066.00;;;10.70
12854;BMP180;6495;51.808;7.478;2023-02-19T00:06:50;101071.00;;;10.70
12854;BMP180;6495;51.808;7.478;2023-02-19T00:09:19;101068.00;;;10.70
12854;BMP180;6495;51.808;7.478;2023-02-19T00:11:49;101070.00;;;10.70
12854;BMP180;6495;51.808;7.478;2023-02-19T00:14:20;101064.00;;;10.70
12854;BMP180;6495;51.808;7.478;2023-02-19T00:16:48;101069.00;;;10.70
12854;BMP180;6495;51.808;7.478;2023-02-19T00:19:19;101069.00;;;10.70
12854;BMP180;6495;51.808;7.478;2023-02-19T00:21:50;101065.00;;;10.70
12854;BMP180;6495;51.808;7.478;2023-02-19T00:24:18;101056.00;;;10.70
12854;BMP180;6495;51.808;7.478;2023-02-19T00:26:48;101063.00;;;10.70
12854;BMP180;6495;51.808;7.478;2023-02-19T00:29:19;101060.00;;;10.70
12854;BMP180;6495;51.808;7.478;2023-02-19T00:31:48;101062.00;;;10.70
12854;BMP180;6495;51.808;7.478;2023-02-19T00:34:16;101055.00;;;10.70
12854;BMP180;6495;51.808;7.478;2023-02-19T00:36:44;101062.00;;;10.70
12854;BMP180;6495;51.808;7.478;2023-02-19T00:39:15;101058.00;;;10.70
12854;BMP180;6495;51.808;7.478;2023-02-19T00:41:44;101056.00;;;10.70
12854;BMP180;6495;51.808;7.478;2023-02-19T00:44:14;101062.00;;;10.70
12854;BMP180;6495;51.808;7.478;2023-02-19T00:46:45;101061.00;;;10.70
12854;BMP180;6495;51.808;7.478;2023-02-19T00:49:18;101062.00;;;10.70
12854;BMP180;6495;51.808;7.478;2023-02-19T00:51:47;101066.00;;;10.70
12854;BMP180;6495;51.808;7.478;2023-02-19T00:54:17;101068.00;;;10.70
12854;BMP180;6495;51.808;7.478;2023-02-19T00:56:46;101055.00;;;10.70
12854;BMP180;6495;51.808;7.478;2023-02-19T00:59:16;101061.00;;;10.70
12854;BMP180;6495;51.808;7.478;2023-02-19T01:01:44;101057.00;;;10.80
12854;BMP180;6495;51.808;7.478;2023-02-19T01:04:13;101062.00;;;10.80
12854;BMP180;6495;51.808;7.478;2023-02-19T01:06:42;101056.00;;;10.70
12854;BMP180;6495;51.808;7.478;2023-02-19T01:09:10;101058.00;;;10.70
12854;BMP180;6495;51.808;7.478;2023-02-19T01:11:40;101053.00;;;10.80
12854;BMP180;6495;51.808;7.478;2023-02-19T01:14:09;101062.00;;;10.80
12854;BMP180;6495;51.808;7.478;2023-02-19T01:16:38;101070.00;;;10.80
12854;BMP180;6495;51.808;7.478;2023-02-19T01:19:06;101056.00;;;10.80
12854;BMP180;6495;51.808;7.478;2023-02-19T01:21:35;101064.00;;;10.80
12854;BMP180;6495;51.808;7.478;2023-02-19T01:24:03;101068.00;;;10.80
12854;BMP180;6495;51.808;7.478;2023-02-19T01:26:32;101058.00;;;10.80
12854;BMP180;6495;51.808;7.478;2023-02-19T01:29:02;101061.00;;;10.80
12854;BMP180;6495;51.808;7.478;2023-02-19T01:31:31;101064.00;;;10.80
12854;BMP180;6495;51.808;7.478;2023-02-19T01:34:03;101072.00;;;10.80
12854;BMP180;6495;51.808;7.478;2023-02-19T01:36:33;101063.00;;;10.80
12854;BMP180;6495;51.808;7.478;2023-02-19T01:39:05;101061.00;;;10.80
12854;BMP180;6495;51.808;7.478;2023-02-19T01:41:39;101058.00;;;10.80
12854;BMP180;6495;51.808;7.478;2023-02-19T01:47:17;101068.00;;;10.80
12854;BMP180;6495;51.808;7.478;2023-02-19T01:49:56;101065.00;;;10.80
12854;BMP180;6495;51.808;7.478;2023-02-19T01:52:28;101069.00;;;10.80
12854;BMP180;6495;51.808;7.478;2023-02-19T01:55:01;101060.00;;;10.80
12854;BMP180;6495;51.808;7.478;2023-02-19T01:57:36;101058.00;;;10.80
12854;BMP180;6495;51.808;7.478;2023-02-19T02:00:10;101070.00;;;10.80
12854;BMP180;6495;51.808;7.478;2023-02-19T02:02:42;101066.00;;;10.80
12854;BMP180;6495;51.808;7.478;2023-02-19T02:05:22;101066.00;;;10.80
12854;BMP180;6495;51.808;7.478;2023-02-19T02:07:52;101064.00;;;10.80
12854;BMP180;6495;51.808;7.478;2023-02-19T02:10:53;101057.00;;;10.80
12854;BMP180;6495;51.808;7.478;2023-02-19T02:13:22;101059.00;;;10.70
12854;BMP180;6495;51.808;7.478;2023-02-19T02:16:05;101065.00;;;10.70
12854;BMP180;6495;51.808;7.478;2023-02-19T02:18:53;101066.00;;;10.80
12854;BMP180;6495;51.808;7.478;2023-02-19T02:22:06;101066.00;;;10.70
12854;BMP180;6495;51.808;7.478;2023-02-19T02:25:28;101066.00;;;10.70
12854;BMP180;6495;51.808;7.478;2023-02-19T02:28:19;101063.00;;;10.70
12854;BMP180;6495;51.808;7.478;2023-02-19T02:30:54;101061.00;;;10.60
12854;BMP180;6495;51.808;7.478;2023-02-19T02:33:31;101066.00;;;10.60
12854;BMP180;6495;51.808;7.478;2023-02-19T02:36:06;101068.00;;;10.60
12854;BMP180;6495;51.808;7.478;2023-02-19T02:38:41;101063.00;;;10.60
12854;BMP180;6495;51.808;7.478;2023-02-19T02:41:13;101065.00;;;10.60
12854;BMP180;6495;51.808;7.478;2023-02-19T02:43:42;101069.00;;;10.60
12854;BMP180;6495;51.808;7.478;2023-02-19T02:46:17;101073.00;;;10.60
12854;BMP180;6495;51.808;7.478;2023-02-19T02:48:51;101074.00;;;10.60
12854;BMP180;6495;51.808;7.478;2023-02-19T02:51:26;101068.00;;;10.60
12854;BMP180;6495;51.808;7.478;2023-02-19T02:54:25;101064.00;;;10.50
12854;BMP180;6495;51.808;7.478;2023-02-19T02:57:14;101067.00;;;10.50
12854;BMP180;6495;51.808;7.478;2023-02-19T02:59:54;101072.00;;;10.60
12854;BMP180;6495;51.808;7.478;2023-02-19T03:02:30;101065.00;;;10.60
12854;BMP180;6495;51.808;7.478;2023-02-19T03:05:05;101065.00;;;10.60
12854;BMP180;6495;51.808;7.478;2023-02-19T03:07:58;101063.00;;;10.50
12854;BMP180;6495;51.808;7.478;2023-02-19T03:10:33;101066.00;;;10.50
12854;BMP180;6495;51.808;7.478;2023-02-19T03:13:07;101065.00;;;10.50
12854;BMP180;6495;51.808;7.478;2023-02-19T03:16:00;101066.00;;;10.50
12854;BMP180;6495;51.808;7.478;2023-02-19T03:18:53;101075.00;;;10.40
12854;BMP180;6495;51.808;7.478;2023-02-19T03:21:44;101077.00;;;10.40
12854;BMP180;6495;51.808;7.478;2023-02-19T03:24:15;101085.00;;;10.40
12854;BMP180;6495;51.808;7.478;2023-02-19T03:27:03;101088.00;;;10.40
12854;BMP180;6495;51.808;7.478;2023-02-19T03:29:39;101095.00;;;10.40
12854;BMP180;6495;51.808;7.478;2023-02-19T03:32:14;101104.00;;;10.30
12854;BMP180;6495;51.808;7.478;2023-02-19T03:34:50;101095.00;;;10.30
12854;BMP180;6495;51.808;7.478;2023-02-19T03:37:25;101100.00;;;10.30
12854;BMP180;6495;51.808;7.478;2023-02-19T03:39:57;101107.00;;;10.20
12854;BMP180;6495;51.808;7.478;2023-02-19T03:42:38;101105.00;;;10.30
12854;BMP180;6495;51.808;7.478;2023-02-19T03:45:26;101111.00;;;10.30
12854;BMP180;6495;51.808;7.478;2023-02-19T03:48:19;101110.00;;;10.30
12854;BMP180;6495;51.808;7.478;2023-02-19T03:51:03;101120.00;;;10.30
12854;BMP180;6495;51.808;7.478;2023-02-19T03:53:48;101115.00;;;10.30
12854;BMP180;6495;51.808;7.478;2023-02-19T03:56:27;101112.00;;;10.30
12854;BMP180;6495;51.808;7.478;2023-02-19T03:59:00;101129.00;;;10.30
12854;BMP180;6495;51.808;7.478;2023-02-19T04:01:41;101125.00;;;10.30
12854;BMP180;6495;51.808;7.478;2023-02-19T04:04:17;101128.00;;;10.30
12854;BMP180;6495;51.808;7.478;2023-02-19T04:06:52;101122.00;;;10.30
12854;BMP180;6495;51.808;7.478;2023-02-19T04:09:27;101123.00;;;10.20
12854;BMP180;6495;51.808;7.478;2023-02-19T04:12:04;101133.00;;;10.20
12854;BMP180;6495;51.808;7.478;2023-02-19T04:14:39;101134.00;;;10.20
12854;BMP180;6495;51.808;7.478;2023-02-19T04:17:18;101136.00;;;10.20
12854;BMP180;6495;51.808;7.478;2023-02-19T04:19:50;101136.00;;;10.30
12854;BMP180;6495;51.808;7.478;2023-02-19T04:22:22;101147.00;;;10.20
12854;BMP180;6495;51.808;7.478;2023-02-19T04:24:52;101148.00;;;10.20
12854;BMP180;6495;51.808;7.478;2023-02-19T04:27:22;101159.00;;;10.20
12854;BMP180;6495;51.808;7.478;2023-02-19T04:29:50;101149.00;;;10.20
12854;BMP180;6495;51.808;7.478;2023-02-19T04:32:19;101158.00;;;10.20
12854;BMP180;6495;51.808;7.478;2023-02-19T04:34:47;101166.00;;;10.20
12854;BMP180;6495;51.808;7.478;2023-02-19T04:37:15;101166.00;;;10.20
12854;BMP180;6495;51.808;7.478;2023-02-19T04:39:45;101166.00;;;10.20
12854;BMP180;6495;51.808;7.478;2023-02-19T04:42:13;101165.00;;;10.20
12854;BMP180;6495;51.808;7.478;2023-02-19T04:44:41;101175.00;;;10.20
12854;BMP180;6495;51.808;7.478;2023-02-19T04:47:09;101176.00;;;10.20
12854;BMP180;6495;51.808;7.478;2023-02-19T04:49:37;101177.00;;;10.20
12854;BMP180;6495;51.808;7.478;2023-02-19T04:52:05;101173.00;;;10.10
12854;BMP180;6495;51.808;7.478;2023-02-19T04:54:33;101192.00;;;10.20
12854;BMP180;6495;51.808;7.478;2023-02-19T04:57:03;101183.00;;;10.20
12854;BMP180;6495;51.808;7.478;2023-02-19T04:59:32;101188.00;;;10.20
12854;BMP180;6495;51.808;7.478;2023-02-19T05:02:00;101185.00;;;10.10
12854;BMP180;6495;51.808;7.478;2023-02-19T05:04:28;101196.00;;;10.10
12854;BMP180;6495;51.808;7.478;2023-02-19T05:06:56;101206.00;;;10.10
12854;BMP180;6495;51.808;7.478;2023-02-19T05:09:24;101203.00;;;10.00
12854;BMP180;6495;51.808;7.478;2023-02-19T05:11:53;101203.00;;;10.00
12854;BMP180;6495;51.808;7.478;2023-02-19T05:14:22;101210.00;;;10.10
12854;BMP180;6495;51.808;7.478;2023-02-19T05:16:51;101219.00;;;10.10
12854;BMP180;6495;51.808;7.478;2023-02-19T05:19:19;101229.00;;;10.10
12854;BMP180;6495;51.808;7.478;2023-02-19T05:21:47;101232.00;;;10.10
12854;BMP180;6495;51.808;7.478;2023-02-19T05:24:15;101227.00;;;10.10
12854;BMP180;6495;51.808;7.478;2023-02-19T05:26:43;101235.00;;;10.10
12854;BMP180;6495;51.808;7.478;2023-02-19T05:29:11;101236.00;;;10.10
12854;BMP180;6495;51.808;7.478;2023-02-19T05:31:41;101247.00;;;10.10
12854;BMP180;6495;51.808;7.478;2023-02-19T05:34:09;101241.00;;;10.10
12854;BMP180;6495;51.808;7.478;2023-02-19T05:36:38;101246.00;;;10.10
12854;BMP180;6495;51.808;7.478;2023-02-19T05:39:10;101244.00;;;10.10
12854;BMP180;6495;51.808;7.478;2023-02-19T05:41:38;101243.00;;;10.10
12854;BMP180;6495;51.808;7.478;2023-02-19T05:44:09;101246.00;;;10.10
12854;BMP180;6495;51.808;7.478;2023-02-19T05:46:37;101250.00;;;10.10
12854;BMP180;6495;51.808;7.478;2023-02-19T05:49:07;101254.00;;;10.10
12854;BMP180;6495;51.808;7.478;2023-02-19T05:51:35;101258.00;;;10.10
12854;BMP180;6495;51.808;7.478;2023-02-19T05:54:04;101258.00;;;10.10
12854;BMP180;6495;51.808;7.478;2023-02-19T05:56:34;101261.00;;;10.10
12854;BMP180;6495;51.808;7.478;2023-02-19T05:59:06;101267.00;;;10.10
12854;BMP180;6495;51.808;7.478;2023-02-19T06:01:35;101263.00;;;10.10
12854;BMP180;6495;51.808;7.478;2023-02-19T06:04:04;101263.00;;;10.10
12854;BMP180;6495;51.808;7.478;2023-02-19T06:06:34;101271.00;;;10.10
12854;BMP180;6495;51.808;7.478;2023-02-19T06:09:03;101270.00;;;10.20
12854;BMP180;6495;51.808;7.478;2023-02-19T06:11:32;101274.00;;;10.20
12854;BMP180;6495;51.808;7.478;2023-02-19T06:14:00;101284.00;;;10.10
12854;BMP180;6495;51.808;7.478;2023-02-19T06:16:28;101280.00;;;10.20
12854;BMP180;6495;51.808;7.478;2023-02-19T06:19:00;101279.00;;;10.20
12854;BMP180;6495;51.808;7.478;2023-02-19T06:21:28;101284.00;;;10.10
12854;BMP180;6495;51.808;7.478;2023-02-19T06:23:58;101286.00;;;10.10
12854;BMP180;6495;51.808;7.478;2023-02-19T06:26:30;101281.00;;;10.20
12854;BMP180;6495;51.808;7.478;2023-02-19T06:28:59;101289.00;;;10.20
12854;BMP180;6495;51.808;7.478;2023-02-19T06:31:27;101284.00;;;10.20
12854;BMP180;6495;51.808;7.478;2023-02-19T06:33:55;101287.00;;;10.20
12854;BMP180;6495;51.808;7.478;2023-02-19T06:36:23;101288.00;;;10.20
12854;BMP180;6495;51.808;7.478;2023-02-19T06:38:51;101291.00;;;10.20
12854;BMP180;6495;51.808;7.478;2023-02-19T06:41:20;101293.00;;;10.20
12854;BMP180;6495;51.808;7.478;2023-02-19T06:43:49;101301.00;;;10.20
12854;BMP180;6495;51.808;7.478;2023-02-19T06:46:17;101302.00;;;10.10
12854;BMP180;6495;51.808;7.478;2023-02-19T06:48:45;101306.00;;;10.10
12854;BMP180;6495;51.808;7.478;2023-02-19T06:51:15;101314.00;;;10.10
12854;BMP180;6495;51.808;7.478;2023-02-19T06:53:45;101320.00;;;10.10
12854;BMP180;6495;51.808;7.478;2023-02-19T06:56:27;101331.00;;;10.10
12854;BMP180;6495;51.808;7.478;2023-02-19T06:58:57;101335.00;;;10.00
12854;BMP180;6495;51.808;7.478;2023-02-19T07:01:27;101331.00;;;10.00
12854;BMP180;6495;51.808;7.478;2023-02-19T07:03:56;101346.00;;;10.00
12854;BMP180;6495;51.808;7.478;2023-02-19T07:06:26;101346.00;;;10.00
12854;BMP180;6495;51.808;7.478;2023-02-19T07:08:57;101356.00;;;9.90
12854;BMP180;6495;51.808;7.478;2023-02-19T07:11:30;101358.00;;;9.90
12854;BMP180;6495;51.808;7.478;2023-02-19T07:14:00;101369.00;;;9.90
12854;BMP180;6495;51.808;7.478;2023-02-19T07:16:29;101374.00;;;9.90
12854;BMP180;6495;51.808;7.478;2023-02-19T07:18:59;101377.00;;;9.90
12854;BMP180;6495;51.808;7.478;2023-02-19T07:21:28;101378.00;;;9.90
12854;BMP180;6495;51.808;7.478;2023-02-19T07:23:57;101379.00;;;9.80
12854;BMP180;6495;51.808;7.478;2023-02-19T07:26:27;101380.00;;;9.80
12854;BMP180;6495;51.808;7.478;2023-02-19T07:28:55;101385.00;;;9.80
12854;BMP180;6495;51.808;7.478;2023-02-19T07:31:23;101392.00;;;9.80
12854;BMP180;6495;51.808;7.478;2023-02-19T07:33:53;101397.00;;;9.80
12854;BMP180;6495;51.808;7.478;2023-02-19T07:36:23;101395.00;;;9.70
12854;BMP180;6495;51.808;7.478;2023-02-19T07:38:53;101405.00;;;9.80
12854;BMP180;6495;51.808;7.478;2023-02-19T07:41:23;101413.00;;;9.80
12854;BMP180;6495;51.808;7.478;2023-02-19T07:43:57;101419.00;;;9.80
12854;BMP180;6495;51.808;7.478;2023-02-19T07:46:26;101416.00;;;9.80
12854;BMP180;6495;51.808;7.478;2023-02-19T07:48:54;101411.00;;;9.80
12854;BMP180;6495;51.808;7.478;2023-02-19T07:51:23;101420.00;;;9.80
12854;BMP180;6495;51.808;7.478;2023-02-19T07:53:53;101416.00;;;9.80
12854;BMP180;6495;51.808;7.478;2023-02-19T07:56:26;101424.00;;;9.90
12854;BMP180;6495;51.808;7.478;2023-02-19T07:59:05;101433.00;;;9.90
12854;BMP180;6495;51.808;7.478;2023-02-19T08:01:34;101432.00;;;9.90
12854;BMP180;6495;51.808;7.478;2023-02-19T08:04:28;101436.00;;;9.90
12854;BMP180;6495;51.808;7.478;2023-02-19T08:06:56;101446.00;;;9.90
12854;BMP180;6495;51.808;7.478;2023-02-19T08:09:26;101446.00;;;9.90
12854;BMP180;6495;51.808;7.478;2023-02-19T08:11:56;101450.00;;;10.00
12854;BMP180;6495;51.808;7.478;2023-02-19T08:14:52;101464.00;;;10.00
12854;BMP180;6495;51.808;7.478;2023-02-19T08:17:22;101465.00;;;10.00
12854;BMP180;6495;51.808;7.478;2023-02-19T08:19:51;101461.00;;;10.00
12854;BMP180;6495;51.808;7.478;2023-02-19T08:22:19;101461.00;;;9.90
12854;BMP180;6495;51.808;7.478;2023-02-19T08:24:48;101458.00;;;9.90
12854;BMP180;6495;51.808;7.478;2023-02-19T08:27:16;101466.00;;;10.00
12854;BMP180;6495;51.808;7.478;2023-02-19T08:29:44;101465.00;;;10.00
12854;BMP180;6495;51.808;7.478;2023-02-19T08:32:14;101459.00;;;10.00
12854;BMP180;6495;51.808;7.478;2023-02-19T08:34:42;101455.00;;;10.00
12854;BMP180;6495;51.808;7.478;2023-02-19T08:37:11;101466.00;;;10.00
12854;BMP180;6495;51.808;7.478;2023-02-19T08:39:39;101466.00;;;10.00
12854;BMP180;6495;51.808;7.478;2023-02-19T08:42:08;101477.00;;;10.00
12854;BMP180;6495;51.808;7.478;2023-02-19T08:44:42;101472.00;;;10.00
12854;BMP180;6495;51.808;7.478;2023-02-19T08:47:10;101478.00;;;10.00
12854;BMP180;6495;51.808;7.478;2023-02-19T08:49:40;101471.00;;;10.00
12854;BMP180;6495;51.808;7.478;2023-02-19T08:52:09;101471.00;;;10.00
12854;BMP180;6495;51.808;7.478;2023-02-19T08:54:37;101480.00;;;10.00
12854;BMP180;6495;51.808;7.478;2023-02-19T08:57:05;101492.00;;;10.00
12854;BMP180;6495;51.808;7.478;2023-02-19T08:59:34;101499.00;;;10.10
12854;BMP180;6495;51.808;7.478;2023-02-19T09:02:02;101496.00;;;10.10
12854;BMP180;6495;51.808;7.478;2023-02-19T09:04:42;101512.00;;;10.10
12854;BMP180;6495;51.808;7.478;2023-02-19T09:07:11;101515.00;;;10.10
12854;BMP180;6495;51.808;7.478;2023-02-19T09:09:40;101537.00;;;10.10
12854;BMP180;6495;51.808;7.478;2023-02-19T09:12:12;101543.00;;;10.10
12854;BMP180;6495;51.808;7.478;2023-02-19T09:14:43;101546.00;;;9.90
12854;BMP180;6495;51.808;7.478;2023-02-19T09:17:12;101545.00;;;9.80
12854;BMP180;6495;51.808;7.478;2023-02-19T09:19:45;101549.00;;;9.70
12854;BMP180;6495;51.808;7.478;2023-02-19T09:22:22;101546.00;;;9.50
12854;BMP180;6495;51.808;7.478;2023-02-19T09:24:53;101562.00;;;9.50
12854;BMP180;6495;51.808;7.478;2023-02-19T09:27:21;101572.00;;;9.40
12854;BMP180;6495;51.808;7.478;2023-02-19T09:29:50;101576.00;;;9.30
12854;BMP180;6495;51.808;7.478;2023-02-19T09:32:19;101579.00;;;9.20
12854;BMP180;6495;51.808;7.478;2023-02-19T09:34:51;101581.00;;;9.10
12854;BMP180;6495;51.808;7.478;2023-02-19T09:37:24;101598.00;;;9.00
12854;BMP180;6495;51.808;7.478;2023-02-19T09:39:54;101590.00;;;8.90
12854;BMP180;6495;51.808;7.478;2023-02-19T09:42:32;101589.00;;;8.90
12854;BMP180;6495;51.808;7.478;2023-02-19T09:45:04;101597.00;;;8.80
12854;BMP180;6495;51.808;7.478;2023-02-19T09:47:33;101602.00;;;8.80
12854;BMP180;6495;51.808;7.478;2023-02-19T09:50:12;101607.00;;;8.80
12854;BMP180;6495;51.808;7.478;2023-02-19T09:52:53;101614.00;;;8.80
12854;BMP180;6495;51.808;7.478;2023-02-19T09:55:31;101625.00;;;8.80
12854;BMP180;6495;51.808;7.478;2023-02-19T09:58:07;101633.00;;;8.70
12854;BMP180;6495;51.808;7.478;2023-02-19T10:00:46;101640.00;;;8.70
12854;BMP180;6495;51.808;7.478;2023-02-19T10:03:37;101650.00;;;8.70
12854;BMP180;6495;51.808;7.478;2023-02-19T10:06:19;101652.00;;;8.60
12854;BMP180;6495;51.808;7.478;2023-02-19T10:09:07;101672.00;;;8.60
12854;BMP180;6495;51.808;7.478;2023-02-19T10:11:39;101681.00;;;8.50
12854;BMP180;6495;51.808;7.478;2023-02-19T10:14:28;101685.00;;;8.50
12854;BMP180;6495;51.808;7.478;2023-02-19T10:17:02;101696.00;;;8.50
12854;BMP180;6495;51.808;7.478;2023-02-19T10:19:32;101691.00;;;8.40
12854;BMP180;6495;51.808;7.478;2023-02-19T10:22:06;101696.00;;;8.40
12854;BMP180;6495;51.808;7.478;2023-02-19T10:24:42;101699.00;;;8.40
12854;BMP180;6495;51.808;7.478;2023-02-19T10:27:14;101702.00;;;8.40
12854;BMP180;6495;51.808;7.478;2023-02-19T10:29:48;101698.00;;;8.50
12854;BMP180;6495;51.808;7.478;2023-02-19T10:32:20;101689.00;;;8.40
12854;BMP180;6495;51.808;7.478;2023-02-19T10:35:10;101694.00;;;8.40
12854;BMP180;6495;51.808;7.478;2023-02-19T10:37:46;101719.00;;;8.50
12854;BMP180;6495;51.808;7.478;2023-02-19T10:40:18;101708.00;;;8.50
12854;BMP180;6495;51.808;7.478;2023-02-19T10:43:04;101708.00;;;8.60
12854;BMP180;6495;51.808;7.478;2023-02-19T10:45:38;101723.00;;;8.60
12854;BMP180;6495;51.808;7.478;2023-02-19T10:48:22;101746.00;;;8.60
12854;BMP180;6495;51.808;7.478;2023-02-19T10:50:53;101749.00;;;8.60
12854;BMP180;6495;51.808;7.478;2023-02-19T10:53:44;101737.00;;;8.60
12854;BMP180;6495;51.808;7.478;2023-02-19T10:56:21;101737.00;;;8.60
12854;BMP180;6495;51.808;7.478;2023-02-19T10:58:50;101742.00;;;8.60
12854;BMP180;6495;51.808;7.478;2023-02-19T11:01:21;101744.00;;;8.70
12854;BMP180;6495;51.808;7.478;2023-02-19T11:04:13;101748.00;;;8.70
12854;BMP180;6495;51.808;7.478;2023-02-19T11:06:42;101755.00;;;8.70
12854;BMP180;6495;51.808;7.478;2023-02-19T11:09:26;101749.00;;;8.80
12854;BMP180;6495;51.808;7.478;2023-02-19T11:11:57;101754.00;;;8.80
12854;BMP180;6495;51.808;7.478;2023-02-19T11:14:31;101763.00;;;8.90
12854;BMP180;6495;51.808;7.478;2023-02-19T11:17:03;101760.00;;;9.00
12854;BMP180;6495;51.808;7.478;2023-02-19T11:19:40;101752.00;;;9.00
12854;BMP180;6495;51.808;7.478;2023-02-19T11:22:28;101766.00;;;9.00
12854;BMP180;6495;51.808;7.478;2023-02-19T11:25:04;101769.00;;;9.00
12854;BMP180;6495;51.808;7.478;2023-02-19T11:27:33;101764.00;;;9.00
12854;BMP180;6495;51.808;7.478;2023-02-19T11:30:31;101775.00;;;9.00
12854;BMP180;6495;51.808;7.478;2023-02-19T11:33:26;101772.00;;;9.00
12854;BMP180;6495;51.808;7.478;2023-02-19T11:36:26;101753.00;;;9.00
12854;BMP180;6495;51.808;7.478;2023-02-19T11:39:02;101765.00;;;9.00
12854;BMP180;6495;51.808;7.478;2023-02-19T11:42:02;101762.00;;;9.10
12854;BMP180;6495;51.808;7.478;2023-02-19T11:44:57;101763.00;;;9.00
12854;BMP180;6495;51.808;7.478;2023-02-19T11:48:09;101757.00;;;9.00
12854;BMP180;6495;51.808;7.478;2023-02-19T11:50:51;101755.00;;;9.00
12854;BMP180;6495;51.808;7.478;2023-02-19T11:53:27;101761.00;;;8.90
12854;BMP180;6495;51.808;7.478;2023-02-19T11:56:14;101747.00;;;9.00
12854;BMP180;6495;51.808;7.478;2023-02-19T11:58:57;101752.00;;;9.00
12854;BMP180;6495;51.808;7.478;2023-02-19T12:01:57;101759.00;;;9.00
12854;BMP180;6495;51.808;7.478;2023-02-19T12:05:11;101759.00;;;9.00
12854;BMP180;6495;51.808;7.478;2023-02-19T12:08:19;101756.00;;;9.00
12854;BMP180;6495;51.808;7.478;2023-02-19T12:11:08;101762.00;;;9.00
12854;BMP180;6495;51.808;7.478;2023-02-19T12:14:02;101774.00;;;9.00
12854;BMP180;6495;51.808;7.478;2023-02-19T12:16:41;101772.00;;;9.00
12854;BMP180;6495;51.808;7.478;2023-02-19T12:19:39;101775.00;;;9.00
12854;BMP180;6495;51.808;7.478;2023-02-19T12:22:25;101775.00;;;9.00
12854;BMP180;6495;51.808;7.478;2023-02-19T12:28:38;101780.00;;;9.00
12854;BMP180;6495;51.808;7.478;2023-02-19T12:31:47;101793.00;;;9.10
12854;BMP180;6495;51.808;7.478;2023-02-19T12:34:37;101799.00;;;9.00
12854;BMP180;6495;51.808;7.478;2023-02-19T12:37:24;101784.00;;;9.00
12854;BMP180;6495;51.808;7.478;2023-02-19T12:40:13;101787.00;;;9.10
12854;BMP180;6495;51.808;7.478;2023-02-19T12:42:59;101781.00;;;9.10
12854;BMP180;6495;51.808;7.478;2023-02-19T12:45:33;101791.00;;;9.20
12854;BMP180;6495;51.808;7.478;2023-02-19T12:48:12;101798.00;;;9.20
12854;BMP180;6495;51.808;7.478;2023-02-19T12:50:44;101796.00;;;9.20
12854;BMP180;6495;51.808;7.478;2023-02-19T12:53:30;101807.00;;;9.30
12854;BMP180;6495;51.808;7.478;2023-02-19T12:56:05;101812.00;;;9.30
12854;BMP180;6495;51.808;7.478;2023-02-19T12:58:41;101809.00;;;9.30
12854;BMP180;6495;51.808;7.478;2023-02-19T13:01:18;101811.00;;;9.40
12854;BMP180;6495;51.808;7.478;2023-02-19T13:04:04;101811.00;;;9.50
12854;BMP180;6495;51.808;7.478;2023-02-19T13:06:44;101803.00;;;9.40
12854;BMP180;6495;51.808;7.478;2023-02-19T13:09:19;101798.00;;;9.40
12854;BMP180;6495;51.808;7.478;2023-02-19T13:11:56;101792.00;;;9.40
12854;BMP180;6495;51.808;7.478;2023-02-19T13:14:30;101795.00;;;9.40
12854;BMP180;6495;51.808;7.478;2023-02-19T13:17:05;101796.00;;;9.40
12854;BMP180;6495;51.808;7.478;2023-02-19T13:19:37;101804.00;;;9.50
12854;BMP180;6495;51.808;7.478;2023-02-19T13:22:19;101810.00;;;9.50
12854;BMP180;6495;51.808;7.478;2023-02-19T13:25:08;101803.00;;;9.50
12854;BMP180;6495;51.808;7.478;2023-02-19T13:28:12;101806.00;;;9.50
12854;BMP180;6495;51.808;7.478;2023-02-19T13:31:02;101806.00;;;9.50
12854;BMP180;6495;51.808;7.478;2023-02-19T13:33:46;101809.00;;;9.50
12854;BMP180;6495;51.808;7.478;2023-02-19T13:36:25;101808.00;;;9.50
12854;BMP180;6495;51.808;7.478;2023-02-19T13:38:55;101810.00;;;9.50
12854;BMP180;6495;51.808;7.478;2023-02-19T13:41:28;101818.00;;;9.50
12854;BMP180;6495;51.808;7.478;2023-02-19T13:44:02;101822.00;;;9.50
12854;BMP180;6495;51.808;7.478;2023-02-19T13:46:41;101820.00;;;9.50
12854;BMP180;6495;51.808;7.478;2023-02-19T13:49:39;101828.00;;;9.60
12854;BMP180;6495;51.808;7.478;2023-02-19T13:52:37;101849.00;;;9.60
12854;BMP180;6495;51.808;7.478;2023-02-19T13:55:52;101848.00;;;9.60
12854;BMP180;6495;51.808;7.478;2023-02-19T13:58:38;101850.00;;;9.60
12854;BMP180;6495;51.808;7.478;2023-02-19T14:02:10;101849.00;;;9.60
12854;BMP180;6495;51.808;7.478;2023-02-19T14:04:44;101853.00;;;9.50
12854;BMP180;6495;51.808;7.478;2023-02-19T14:07:51;101838.00;;;9.50
12854;BMP180;6495;51.808;7.478;2023-02-19T14:10:55;101853.00;;;9.60
12854;BMP180;6495;51.808;7.478;2023-02-19T14:13:59;101854.00;;;9.70
12854;BMP180;6495;51.808;7.478;2023-02-19T14:16:57;101859.00;;;9.70
12854;BMP180;6495;51.808;7.478;2023-02-19T14:19:58;101875.00;;;9.70
12854;BMP180;6495;51.808;7.478;2023-02-19T14:23:15;101878.00;;;9.70
12854;BMP180;6495;51.808;7.478;2023-02-19T14:25:58;101884.00;;;9.70
12854;BMP180;6495;51.808;7.478;2023-02-19T14:28:33;101887.00;;;9.70
12854;BMP180;6495;51.808;7.478;2023-02-19T14:31:13;101885.00;;;9.70
12854;BMP180;6495;51.808;7.478;2023-02-19T14:33:47;101881.00;;;9.70
12854;BMP180;6495;51.808;7.478;2023-02-19T14:36:27;101878.00;;;9.70
12854;BMP180;6495;51.808;7.478;2023-02-19T14:39:02;101879.00;;;9.70
12854;BMP180;6495;51.808;7.478;2023-02-19T14:41:36;101879.00;;;9.80
12854;BMP180;6495;51.808;7.478;2023-02-19T14:44:13;101870.00;;;9.80
12854;BMP180;6495;51.808;7.478;2023-02-19T14:46:52;101864.00;;;9.80
12854;BMP180;6495;51.808;7.478;2023-02-19T14:49:30;101875.00;;;9.80
12854;BMP180;6495;51.808;7.478;2023-02-19T14:52:05;101871.00;;;9.80
12854;BMP180;6495;51.808;7.478;2023-02-19T14:54:41;101860.00;;;9.80
12854;BMP180;6495;51.808;7.478;2023-02-19T14:57:16;101858.00;;;9.80
12854;BMP180;6495;51.808;7.478;2023-02-19T14:59:53;101862.00;;;9.80
12854;BMP180;6495;51.808;7.478;2023-02-19T15:02:21;101859.00;;;9.80
12854;BMP180;6495;51.808;7.478;2023-02-19T15:04:52;101857.00;;;9.80
12854;BMP180;6495;51.808;7.478;2023-02-19T15:07:25;101849.00;;;9.80
12854;BMP180;6495;51.808;7.478;2023-02-19T15:10:00;101846.00;;;9.80
12854;BMP180;6495;51.808;7.478;2023-02-19T15:12:37;101835.00;;;9.80